Time;durP1;ratioP1;P1;durP2;ratioP2;P2;SDS_P1;SDS_P2;PMS_P1;PMS_P2;Temp;Humidity;BMP_temperature;BMP_pressure;BME280_temperature;BME280_humidity;BME280_pressure;Samples;Min_cycle;Max_cycle;Signal;HPM_P1;HPM_P2
2021/10/17 00:00:57;;;;;;;5.47;2.37;;;;;;;9.46;66.90;102005.16;5049449;28;20178;-70
2021/10/17 00:03:22;;;;;;;4.00;2.10;;;;;;;9.49;66.05;102005.28;5047778;28;20200;-70
2021/10/17 00:05:47;;;;;;;7.63;2.53;;;;;;;9.47;67.46;102010.34;5049005;28;20200;-70
2021/10/17 00:08:12;;;;;;;9.47;2.33;;;;;;;9.45;67.82;102008.53;5049126;28;20206;-70
2021/10/17 00:10:38;;;;;;;6.63;2.20;;;;;;;9.43;66.58;102010.13;5049078;28;20200;-70
2021/10/17 00:13:07;;;;;;;5.30;2.23;;;;;;;9.44;67.08;102007.63;5047862;28;20634;-70
2021/10/17 00:15:34;;;;;;;6.07;2.23;;;;;;;9.44;67.04;102010.19;5047528;28;20209;-70
2021/10/17 00:18:00;;;;;;;8.27;2.40;;;;;;;9.45;66.20;102004.25;5049028;28;20201;-70
2021/10/17 00:20:26;;;;;;;6.33;2.10;;;;;;;9.46;66.07;102002.59;5047723;28;20244;-70
2021/10/17 00:22:51;;;;;;;4.73;1.97;;;;;;;9.46;65.98;101995.81;5049077;28;20173;-70
2021/10/17 00:25:17;;;;;;;4.10;1.70;;;;;;;9.47;66.61;102000.09;5048610;28;20193;-70
2021/10/17 00:27:44;;;;;;;6.53;2.17;;;;;;;9.47;66.84;101995.00;5047267;28;20209;-70
2021/10/17 00:30:17;;;;;;;7.13;2.00;;;;;;;9.44;66.51;101989.75;5048402;28;20986;-70
2021/10/17 00:32:43;;;;;;;6.03;2.10;;;;;;;9.43;66.93;101992.22;5047507;28;20574;-70
2021/10/17 00:35:10;;;;;;;5.70;2.00;;;;;;;9.39;67.82;102000.56;5047283;28;20324;-70
2021/10/17 00:37:36;;;;;;;5.77;2.20;;;;;;;9.40;67.76;101987.00;5047146;28;20701;-70
2021/10/17 00:40:08;;;;;;;5.83;2.27;;;;;;;9.40;67.87;101985.31;5048932;28;20192;-70
2021/10/17 00:42:35;;;;;;;8.63;2.90;;;;;;;9.42;67.39;101983.72;5048620;28;20193;-70
2021/10/17 00:45:07;;;;;;;7.53;2.57;;;;;;;9.41;67.23;101981.09;5047585;28;20679;-70
2021/10/17 00:47:32;;;;;;;6.13;2.13;;;;;;;9.40;67.78;101980.19;5048769;28;20198;-70
2021/10/17 00:49:58;;;;;;;6.20;2.40;;;;;;;9.33;68.28;101972.22;5049407;28;20720;-70
2021/10/17 00:52:23;;;;;;;7.80;2.50;;;;;;;9.36;67.81;101974.91;5047874;28;20317;-70
2021/10/17 00:54:49;;;;;;;7.43;2.93;;;;;;;9.36;68.25;101978.31;5051600;28;20190;-70
2021/10/17 00:57:16;;;;;;;7.00;2.50;;;;;;;9.36;68.10;101968.09;5052652;28;20579;-70
2021/10/17 00:59:41;;;;;;;7.00;2.30;;;;;;;9.37;68.08;101971.53;5051448;28;20196;-70
2021/10/17 01:02:08;;;;;;;4.77;2.00;;;;;;;9.34;68.23;101967.16;5051361;28;20189;-70
2021/10/17 01:04:37;;;;;;;5.47;2.13;;;;;;;9.38;69.06;101970.72;5051474;28;20240;-70
2021/10/17 01:07:04;;;;;;;6.60;2.10;;;;;;;9.36;68.89;101962.13;5051391;28;20593;-70
2021/10/17 01:09:29;;;;;;;8.87;2.53;;;;;;;9.39;66.82;101955.44;5050846;28;20170;-70
2021/10/17 01:11:55;;;;;;;5.00;1.97;;;;;;;9.41;67.55;101955.53;5051343;28;20279;-70
2021/10/17 01:14:24;;;;;;;8.03;2.17;;;;;;;9.40;67.41;101946.97;5049457;28;20601;-70
2021/10/17 01:16:51;;;;;;;10.47;2.67;;;;;;;9.40;66.72;101948.66;5047644;28;20206;-70
2021/10/17 01:19:19;;;;;;;7.50;2.63;;;;;;;9.40;66.79;101948.66;5049609;28;20220;-70
2021/10/17 01:21:48;;;;;;;6.53;2.23;;;;;;;9.40;67.85;101951.22;5050733;28;20210;-70
2021/10/17 01:24:15;;;;;;;7.57;2.20;;;;;;;9.39;67.34;101950.34;5032757;28;20280;-70
2021/10/17 01:26:41;;;;;;;6.40;2.37;;;;;;;9.42;66.81;101952.16;5052211;28;20216;-70
2021/10/17 01:29:08;;;;;;;7.57;2.60;;;;;;;9.41;66.61;101943.63;5050591;28;20198;-70
2021/10/17 01:31:46;;;;;;;4.97;2.30;;;;;;;9.40;67.26;101941.84;5049791;28;20626;-70
2021/10/17 01:34:12;;;;;;;5.73;2.40;;;;;;;9.38;68.03;101946.03;5047416;28;20202;-70
2021/10/17 01:36:38;;;;;;;5.70;2.80;;;;;;;9.38;67.91;101935.81;5044426;28;20281;-70
2021/10/17 01:39:06;;;;;;;3.70;2.40;;;;;;;9.40;66.79;101935.88;5049914;28;20186;-70
2021/10/17 01:41:31;;;;;;;8.97;2.53;;;;;;;9.39;67.06;101936.66;5050920;28;20177;-70
2021/10/17 01:44:02;;;;;;;5.87;2.50;;;;;;;9.38;66.88;101933.25;5048904;28;20178;-70
2021/10/17 01:46:29;;;;;;;6.17;2.80;;;;;;;9.39;66.84;101936.66;5044790;28;20263;-70
2021/10/17 01:48:54;;;;;;;7.57;2.90;;;;;;;9.39;67.27;101931.56;5033488;28;20185;-70
2021/10/17 01:51:20;;;;;;;8.80;2.60;;;;;;;9.38;67.49;101935.81;5049019;28;20686;-70
2021/10/17 01:53:45;;;;;;;6.70;2.90;;;;;;;9.37;67.46;101928.97;5047604;28;20194;-70
2021/10/17 01:56:13;;;;;;;7.87;2.87;;;;;;;9.39;67.27;101927.34;5050478;28;20196;-70
2021/10/17 01:58:38;;;;;;;7.43;2.50;;;;;;;9.38;67.60;101923.03;5050137;28;20555;-70
2021/10/17 02:01:04;;;;;;;7.03;2.80;;;;;;;9.38;67.64;101927.25;5049197;28;20658;-70
2021/10/17 02:03:30;;;;;;;9.33;3.10;;;;;;;9.39;67.34;101926.44;5050378;28;20185;-70
2021/10/17 02:05:56;;;;;;;8.90;3.03;;;;;;;9.36;68.58;101927.19;5048023;28;20549;-70
2021/10/17 02:08:22;;;;;;;7.27;2.70;;;;;;;9.35;69.87;101927.16;5049902;28;20292;-70
2021/10/17 02:10:47;;;;;;;8.00;3.20;;;;;;;9.22;70.92;101925.75;5049815;28;20623;-70
2021/10/17 02:13:14;;;;;;;6.53;3.00;;;;;;;9.16;72.01;101910.16;5044627;28;20198;-70
2021/10/17 02:15:39;;;;;;;8.43;2.93;;;;;;;9.15;72.71;101908.44;5046127;28;20186;-71
2021/10/17 02:18:05;;;;;;;8.67;3.33;;;;;;;9.17;72.38;101913.59;5048977;28;20292;-70
2021/10/17 02:20:41;;;;;;;7.17;3.37;;;;;;;9.14;72.84;101910.91;5046882;28;20268;-70
2021/10/17 02:23:07;;;;;;;13.23;3.37;;;;;;;9.14;71.58;101909.25;5030416;28;20183;-71
2021/10/17 02:25:34;;;;;;;6.63;3.77;;;;;;;9.16;72.08;101910.16;5034502;28;20194;-70
2021/10/17 02:28:00;;;;;;;6.00;2.97;;;;;;;9.15;72.04;101907.53;5049810;28;20225;-71
2021/10/17 02:30:27;;;;;;;10.40;2.97;;;;;;;9.17;72.18;101909.34;5064869;28;20663;-70
2021/10/17 02:33:11;;;;;;;7.47;3.13;;;;;;;9.15;73.39;101908.44;5049451;28;20209;-71
2021/10/17 02:35:37;;;;;;;9.43;3.40;;;;;;;9.15;73.26;101905.88;5048286;28;20678;-71
2021/10/17 02:38:03;;;;;;;12.07;4.00;;;;;;;9.16;72.76;101906.72;5049767;28;20221;-70
2021/10/17 02:40:34;;;;;;;8.63;3.23;;;;;;;9.15;72.34;101900.75;5049438;28;20194;-71
2021/10/17 02:43:01;;;;;;;6.67;3.27;;;;;;;9.16;72.86;101897.41;5048848;28;20178;-71
2021/10/17 02:45:26;;;;;;;8.87;3.47;;;;;;;9.18;73.02;101906.00;5049223;28;20549;-71
2021/10/17 02:47:53;;;;;;;8.90;3.90;;;;;;;9.18;72.79;101895.78;5047352;28;20304;-71
2021/10/17 02:50:18;;;;;;;9.80;3.23;;;;;;;9.18;72.74;101897.47;5049041;28;20186;-71
2021/10/17 02:52:47;;;;;;;10.77;3.90;;;;;;;9.17;72.07;101901.69;5049590;28;20214;-71
2021/10/17 02:55:14;;;;;;;7.63;4.17;;;;;;;9.19;72.45;101902.66;5047955;28;20222;-71
2021/10/17 02:57:40;;;;;;;9.70;3.63;;;;;;;9.21;71.20;101900.16;5049427;28;20238;-71
2021/10/17 03:00:06;;;;;;;9.03;3.60;;;;;;;9.21;71.04;101900.16;5048752;28;20193;-71
2021/10/17 03:02:32;;;;;;;9.47;3.63;;;;;;;9.21;71.48;101900.16;5048294;28;20178;-71
2021/10/17 03:04:58;;;;;;;12.40;3.90;;;;;;;9.21;72.13;101897.59;5046508;28;20181;-71
2021/10/17 03:07:23;;;;;;;11.13;3.67;;;;;;;9.21;72.32;101898.47;5048495;28;20264;-71
2021/10/17 03:10:01;;;;;;;9.50;3.67;;;;;;;9.21;72.40;101897.59;5046201;28;20197;-71
2021/10/17 03:12:26;;;;;;;14.70;3.53;;;;;;;9.23;72.43;101903.63;5048739;28;20201;-71
2021/10/17 03:14:56;;;;;;;9.03;3.90;;;;;;;9.21;72.08;101898.47;5047742;28;20276;-72
2021/10/17 03:17:21;;;;;;;10.80;4.20;;;;;;;9.22;71.82;101900.19;5030814;28;20357;-70
2021/10/17 03:19:49;;;;;;;10.00;3.80;;;;;;;9.23;72.07;101899.41;5049239;28;20239;-70
2021/10/17 03:22:14;;;;;;;9.47;3.63;;;;;;;9.24;72.70;101902.81;5048412;28;20217;-70
2021/10/17 03:24:40;;;;;;;12.43;4.00;;;;;;;9.22;72.87;101899.34;5048369;28;20659;-70
2021/10/17 03:27:05;;;;;;;8.23;3.90;;;;;;;9.21;73.58;101900.16;5047919;28;20205;-71
2021/10/17 03:29:31;;;;;;;10.87;4.10;;;;;;;9.20;73.98;101893.28;5047923;28;20194;-70
2021/10/17 03:31:59;;;;;;;12.47;4.30;;;;;;;9.19;74.39;101896.66;5048789;28;20209;-70
2021/10/17 03:34:26;;;;;;;7.97;3.93;;;;;;;9.17;75.02;101891.47;5047567;28;20194;-71
2021/10/17 03:36:51;;;;;;;9.57;4.30;;;;;;;9.16;75.25;101901.63;5049773;28;20213;-71
2021/10/17 03:39:17;;;;;;;10.93;4.60;;;;;;;9.16;74.94;101901.63;5047078;28;20209;-71
2021/10/17 03:41:42;;;;;;;13.33;4.60;;;;;;;9.16;75.41;101896.50;5048627;28;20186;-70
2021/10/17 03:44:08;;;;;;;12.50;4.50;;;;;;;9.14;75.48;101895.59;5047628;28;20280;-71
2021/10/17 03:46:33;;;;;;;11.20;4.73;;;;;;;9.14;75.83;101898.13;5048335;28;20201;-71
2021/10/17 03:48:59;;;;;;;11.30;4.40;;;;;;;9.15;75.85;101894.78;5047693;28;20268;-71
2021/10/17 03:51:28;;;;;;;12.67;4.70;;;;;;;9.15;76.49;101894.78;5046343;28;20225;-71
2021/10/17 03:53:57;;;;;;;10.07;4.77;;;;;;;9.15;76.50;101893.09;5031747;28;20232;-70
2021/10/17 03:56:24;;;;;;;12.17;4.80;;;;;;;9.15;76.85;101894.78;5047474;28;20186;-71
2021/10/17 03:58:51;;;;;;;10.60;4.63;;;;;;;9.14;76.98;101896.47;5045499;28;20274;-70
2021/10/17 04:01:17;;;;;;;17.63;5.13;;;;;;;9.15;76.88;101889.66;5048340;28;20224;-70
2021/10/17 04:03:42;;;;;;;10.07;4.90;;;;;;;9.14;76.85;101895.59;5047863;28;20177;-71
2021/10/17 04:06:09;;;;;;;14.10;4.97;;;;;;;9.16;76.20;101894.84;5045901;28;20717;-70
2021/10/17 04:08:35;;;;;;;13.60;5.17;;;;;;;9.18;75.75;101892.34;5048004;28;20182;-70
2021/10/17 04:11:01;;;;;;;14.93;5.33;;;;;;;9.18;76.02;101897.47;5040407;28;20244;-70
2021/10/17 04:13:27;;;;;;;11.57;4.90;;;;;;;9.20;75.69;101895.84;5029731;28;20231;-71
2021/10/17 04:15:53;;;;;;;16.17;5.40;;;;;;;9.22;75.96;101889.97;5047817;28;20629;-71
2021/10/17 04:18:18;;;;;;;12.53;5.50;;;;;;;9.21;76.00;101889.94;5048283;28;20213;-70
2021/10/17 04:20:44;;;;;;;13.40;5.70;;;;;;;9.24;75.42;101884.94;5043995;28;20198;-70
2021/10/17 04:23:10;;;;;;;11.27;5.27;;;;;;;9.23;75.86;101899.41;5048110;28;20231;-71
2021/10/17 04:25:35;;;;;;;11.97;4.90;;;;;;;9.24;74.54;101905.38;5047452;28;20182;-70
2021/10/17 04:28:02;;;;;;;13.20;5.30;;;;;;;9.22;74.62;101901.91;5046753;28;20283;-70
2021/10/17 04:30:27;;;;;;;9.93;4.87;;;;;;;9.21;75.23;101906.13;5030380;28;20953;-70
2021/10/17 04:32:53;;;;;;;12.27;4.93;;;;;;;9.21;74.89;101898.47;5048095;28;20198;-70
2021/10/17 04:35:18;;;;;;;11.67;4.97;;;;;;;9.21;75.07;101901.00;5047354;28;20194;-70
2021/10/17 04:37:44;;;;;;;12.80;5.50;;;;;;;9.19;74.94;101900.09;5048994;28;20741;-71
2021/10/17 04:40:09;;;;;;;12.53;4.83;;;;;;;9.17;74.73;101894.03;5044633;28;20232;-71
2021/10/17 04:42:36;;;;;;;13.03;5.30;;;;;;;9.11;75.44;101892.88;5047803;28;20216;-70
2021/10/17 04:45:03;;;;;;;8.90;4.57;;;;;;;9.08;75.94;101893.63;5047480;28;20190;-70
2021/10/17 04:47:28;;;;;;;11.43;5.00;;;;;;;9.07;75.88;101891.91;5046603;28;20717;-70
2021/10/17 04:49:54;;;;;;;13.70;5.33;;;;;;;9.04;76.01;101899.41;5047827;28;20218;-70
2021/10/17 04:52:19;;;;;;;11.30;6.00;;;;;;;9.01;75.60;101893.31;5048203;28;20708;-70
2021/10/17 04:54:47;;;;;;;12.30;5.30;;;;;;;9.01;76.02;101884.00;5046941;28;20197;-70
2021/10/17 04:57:13;;;;;;;12.73;5.77;;;;;;;8.97;76.39;101900.00;5046382;28;20714;-70
2021/10/17 04:59:40;;;;;;;9.93;5.50;;;;;;;8.95;76.03;101909.28;5047095;28;20190;-70
2021/10/17 05:02:07;;;;;;;14.83;6.07;;;;;;;8.91;75.91;101904.84;5047121;28;20178;-70
2021/10/17 05:04:37;;;;;;;14.47;5.83;;;;;;;8.90;76.79;101900.50;5046909;28;20189;-70
2021/10/17 05:07:03;;;;;;;14.47;6.03;;;;;;;8.94;76.20;101904.09;5046560;28;20228;-71
2021/10/17 05:09:28;;;;;;;14.23;6.43;;;;;;;8.95;76.89;101904.16;5027807;28;20659;-70
2021/10/17 05:11:53;;;;;;;12.00;6.30;;;;;;;8.97;76.59;101901.66;5034410;28;20210;-70
2021/10/17 05:14:19;;;;;;;12.53;5.33;;;;;;;8.98;76.54;101908.53;5046782;28;20186;-71
2021/10/17 05:16:45;;;;;;;12.50;5.90;;;;;;;9.00;76.38;101907.78;5041176;28;20213;-70
2021/10/17 05:19:10;;;;;;;10.67;5.57;;;;;;;9.03;76.46;101907.03;5042999;28;20183;-70
2021/10/17 05:21:37;;;;;;;12.43;6.37;;;;;;;9.04;76.78;101909.63;5047254;28;20278;-70
2021/10/17 05:24:03;;;;;;;16.17;6.80;;;;;;;9.06;75.56;101899.50;5046942;28;20257;-70
2021/10/17 05:26:28;;;;;;;14.97;6.70;;;;;;;9.04;76.17;101901.97;5047041;28;20242;-70
2021/10/17 05:28:54;;;;;;;11.60;6.13;;;;;;;9.05;76.59;101913.97;5046921;28;20214;-70
2021/10/17 05:31:19;;;;;;;15.07;6.60;;;;;;;9.08;76.98;101919.19;5045269;28;20197;-71
2021/10/17 05:33:45;;;;;;;15.33;6.33;;;;;;;9.09;76.43;101907.28;5043103;28;20190;-71
2021/10/17 05:36:12;;;;;;;11.23;5.93;;;;;;;9.09;76.62;101915.84;5046613;28;20186;-70
2021/10/17 05:38:40;;;;;;;10.87;5.50;;;;;;;9.08;76.96;101915.78;5038499;28;20174;-70
2021/10/17 05:41:07;;;;;;;15.43;6.53;;;;;;;9.06;76.15;101918.25;5050496;28;20201;-70
2021/10/17 05:43:33;;;;;;;11.87;6.20;;;;;;;9.08;76.40;101919.19;5051122;28;20182;-70
2021/10/17 05:45:59;;;;;;;13.43;6.40;;;;;;;9.08;76.57;101923.44;5048317;28;20193;-71
2021/10/17 05:48:24;;;;;;;15.10;5.97;;;;;;;9.09;77.07;101931.19;5049367;28;20205;-70
2021/10/17 05:50:50;;;;;;;14.47;7.20;;;;;;;9.10;76.25;101929.47;5049602;28;20651;-71
2021/10/17 05:53:16;;;;;;;14.93;6.20;;;;;;;9.09;76.86;101926.06;5049965;28;20217;-70
2021/10/17 05:55:41;;;;;;;14.70;5.70;;;;;;;9.11;77.12;101932.09;5051741;28;20622;-70
2021/10/17 05:58:07;;;;;;;12.57;6.40;;;;;;;9.12;76.97;101940.66;5049149;28;20241;-70
2021/10/17 06:00:33;;;;;;;13.37;6.33;;;;;;;9.13;76.89;101933.03;5048990;28;20200;-70
2021/10/17 06:03:01;;;;;;;11.23;6.37;;;;;;;9.16;76.33;101939.94;5049556;28;20194;-71
2021/10/17 06:05:30;;;;;;;13.67;6.23;;;;;;;9.17;77.20;101940.00;5042050;28;20205;-70
2021/10/17 06:07:56;;;;;;;10.70;6.50;;;;;;;9.19;76.93;101943.53;5050496;28;20240;-70
2021/10/17 06:10:21;;;;;;;11.97;6.60;;;;;;;9.20;77.14;101954.59;5048267;28;20772;-70
2021/10/17 06:12:47;;;;;;;12.97;6.20;;;;;;;9.22;77.68;101948.75;5048696;28;20570;-71
2021/10/17 06:15:15;;;;;;;13.60;6.20;;;;;;;9.24;77.71;101952.25;5045334;28;20213;-71
2021/10/17 06:17:40;;;;;;;12.50;6.17;;;;;;;9.26;77.57;101955.75;5050106;28;20241;-71
2021/10/17 06:20:06;;;;;;;15.53;6.73;;;;;;;9.28;77.45;101963.47;5050623;28;20192;-71
2021/10/17 06:22:37;;;;;;;9.87;6.30;;;;;;;9.28;78.41;101956.69;5049578;28;20185;-71
2021/10/17 06:25:03;;;;;;;15.47;6.57;;;;;;;9.29;78.29;101960.09;5050867;28;20186;-71
2021/10/17 06:27:29;;;;;;;15.40;7.23;;;;;;;9.30;77.46;101955.06;5049985;28;20701;-71
2021/10/17 06:29:55;;;;;;;14.50;6.50;;;;;;;9.32;77.43;101966.25;5048220;28;20190;-71
2021/10/17 06:32:21;;;;;;;12.83;6.50;;;;;;;9.31;78.01;101964.47;5049608;28;20210;-70
2021/10/17 06:34:46;;;;;;;11.67;6.10;;;;;;;9.33;77.52;101972.22;5047324;28;20217;-70
2021/10/17 06:37:12;;;;;;;13.33;6.57;;;;;;;9.33;77.72;101969.66;5049618;28;20631;-70
2021/10/17 06:39:38;;;;;;;17.17;6.93;;;;;;;9.34;78.22;101972.28;5049295;28;20185;-70
2021/10/17 06:42:05;;;;;;;18.37;7.00;;;;;;;9.36;78.26;101973.19;5046891;28;20186;-71
2021/10/17 06:45:00;;;;;;;13.00;7.17;;;;;;;9.39;77.88;101987.78;5021128;28;20277;-71
2021/10/17 06:47:26;;;;;;;14.17;8.03;;;;;;;9.39;78.14;101982.69;5050196;28;20296;-70
2021/10/17 06:49:52;;;;;;;17.90;7.90;;;;;;;9.40;77.77;101982.75;5045900;28;20273;-70
2021/10/17 06:52:17;;;;;;;15.03;6.83;;;;;;;9.42;78.48;101978.59;5049256;28;20264;-71
2021/10/17 06:54:42;;;;;;;15.53;7.07;;;;;;;9.41;79.19;101974.31;5049523;28;20675;-70
2021/10/17 06:57:08;;;;;;;17.63;8.30;;;;;;;9.46;78.27;101969.38;5049290;28;20225;-71
2021/10/17 06:59:34;;;;;;;13.77;6.80;;;;;;;9.49;78.54;101977.16;5049150;28;20174;-71
2021/10/17 07:02:00;;;;;;;13.93;7.20;;;;;;;9.51;78.58;101978.97;5047592;28;20182;-70
2021/10/17 07:04:26;;;;;;;18.23;7.73;;;;;;;9.52;78.68;101979.84;5047446;28;20745;-70
2021/10/17 07:06:51;;;;;;;13.70;7.70;;;;;;;9.56;78.09;101974.94;5050409;28;20221;-70
2021/10/17 07:09:18;;;;;;;15.80;7.80;;;;;;;9.59;78.56;101984.41;5046109;28;20315;-70
2021/10/17 07:11:52;;;;;;;19.17;8.40;;;;;;;9.54;78.99;101979.09;5042799;28;20308;-70
2021/10/17 07:14:29;;;;;;;19.57;7.97;;;;;;;9.53;78.92;101976.47;5047849;28;20216;-71
2021/10/17 07:17:10;;;;;;;17.90;7.70;;;;;;;9.55;78.56;101975.75;5048684;28;20247;-70
2021/10/17 07:19:36;;;;;;;15.80;8.17;;;;;;;9.58;78.65;101983.53;5049105;28;20195;-70
2021/10/17 07:22:02;;;;;;;14.47;7.87;;;;;;;9.61;77.61;101982.78;5049421;28;20200;-70
2021/10/17 07:24:31;;;;;;;18.07;8.10;;;;;;;9.61;77.99;101980.22;5049186;28;20197;-70
2021/10/17 07:26:59;;;;;;;13.73;6.73;;;;;;;9.64;77.95;101972.69;5048847;28;20214;-70
2021/10/17 07:29:24;;;;;;;15.87;8.47;;;;;;;9.67;77.79;101966.00;5048943;28;20273;-70
2021/10/17 07:31:50;;;;;;;15.37;7.73;;;;;;;9.73;77.24;101967.94;5048940;28;20293;-70
2021/10/17 07:34:15;;;;;;;15.63;8.43;;;;;;;9.78;78.62;101975.00;5050238;28;20189;-70
2021/10/17 07:36:41;;;;;;;13.97;7.37;;;;;;;9.78;77.18;101976.69;5048707;28;20300;-70
2021/10/17 07:39:11;;;;;;;17.87;8.73;;;;;;;9.81;77.20;101969.13;5048849;28;20620;-70
2021/10/17 07:41:45;;;;;;;16.57;8.13;;;;;;;9.81;77.49;101975.09;5048889;28;20189;-70
2021/10/17 07:44:12;;;;;;;15.63;8.53;;;;;;;9.81;77.27;101975.09;5048669;28;20235;-70
2021/10/17 07:46:52;;;;;;;14.30;8.93;;;;;;;9.85;77.06;101981.22;5048459;28;20205;-70
2021/10/17 07:49:19;;;;;;;14.67;8.10;;;;;;;9.86;77.79;101981.28;5048672;28;20182;-70
2021/10/17 07:51:44;;;;;;;13.53;7.80;;;;;;;9.91;77.74;101977.22;5048697;28;20709;-71
2021/10/17 07:54:10;;;;;;;20.47;8.73;;;;;;;9.91;77.28;101984.03;5048734;28;20239;-70
2021/10/17 07:56:39;;;;;;;16.77;8.57;;;;;;;9.90;77.38;101983.16;5048389;28;20580;-71
2021/10/17 07:59:05;;;;;;;17.17;8.57;;;;;;;9.92;77.48;101986.66;5048832;28;20182;-71
2021/10/17 08:01:31;;;;;;;15.33;8.20;;;;;;;9.94;77.32;101991.81;5048334;28;20773;-70
2021/10/17 08:04:15;;;;;;;15.27;7.97;;;;;;;9.90;78.36;101995.09;5048634;28;20335;-70
2021/10/17 08:07:03;;;;;;;14.40;8.50;;;;;;;9.96;77.52;101997.88;5048107;28;20209;-71
2021/10/17 08:09:28;;;;;;;14.97;8.50;;;;;;;9.91;77.31;101991.72;5046870;28;20181;-71
2021/10/17 08:11:54;;;;;;;16.23;8.67;;;;;;;9.93;77.88;101997.75;5048531;28;20216;-70
2021/10/17 08:14:20;;;;;;;16.13;9.17;;;;;;;9.91;77.33;101994.28;5049852;28;20647;-70
2021/10/17 08:16:48;;;;;;;18.60;8.87;;;;;;;9.88;77.58;101992.47;5048357;28;20202;-71
2021/10/17 08:19:16;;;;;;;16.87;8.50;;;;;;;9.89;77.38;101995.88;5032089;28;20193;-71
2021/10/17 08:21:41;;;;;;;17.70;8.60;;;;;;;9.91;77.29;102001.94;5048130;28;20197;-70
2021/10/17 08:24:09;;;;;;;13.13;8.40;;;;;;;9.89;78.10;101998.44;5048371;28;20186;-70
2021/10/17 08:26:41;;;;;;;19.67;9.63;;;;;;;9.96;77.80;102001.28;5048066;28;20205;-71
2021/10/17 08:29:09;;;;;;;15.80;9.57;;;;;;;9.99;77.23;102003.09;5048345;28;20173;-71
2021/10/17 08:31:36;;;;;;;15.50;9.20;;;;;;;10.00;78.07;102004.88;5048028;28;20709;-72
2021/10/17 08:34:07;;;;;;;17.03;8.73;;;;;;;10.00;77.39;102008.28;5048233;28;20232;-71
2021/10/17 08:36:33;;;;;;;14.20;8.33;;;;;;;10.01;77.80;102017.75;5031239;28;20237;-71
2021/10/17 08:39:00;;;;;;;18.23;9.40;;;;;;;10.05;77.91;102008.53;5047998;28;20568;-72
2021/10/17 08:41:38;;;;;;;15.80;9.37;;;;;;;10.12;77.38;102005.38;5048146;28;20738;-72
2021/10/17 08:44:12;;;;;;;14.67;9.13;;;;;;;10.13;77.17;102019.94;5048175;28;20174;-73
2021/10/17 08:46:47;;;;;;;17.53;9.13;;;;;;;10.18;77.42;102008.19;5047673;28;20245;-72
2021/10/17 08:49:20;;;;;;;19.60;9.83;;;;;;;10.18;77.15;102010.75;5047980;28;20182;-72
2021/10/17 08:51:46;;;;;;;17.93;9.60;;;;;;;10.27;76.74;102011.13;5048009;28;20201;-73
2021/10/17 08:54:11;;;;;;;15.30;8.40;;;;;;;10.34;77.07;102010.53;5048044;28;20224;-72
2021/10/17 08:56:51;;;;;;;17.30;8.67;;;;;;;10.37;77.02;102011.53;5028031;28;20309;-72
2021/10/17 08:59:19;;;;;;;18.47;8.93;;;;;;;10.32;76.42;102015.59;5028137;28;20225;-72
2021/10/17 09:01:47;;;;;;;15.77;9.10;;;;;;;10.37;76.89;102015.78;5027970;28;20186;-73
2021/10/17 09:04:15;;;;;;;17.63;9.50;;;;;;;10.42;76.57;102020.25;5028068;28;20233;-71
2021/10/17 09:06:52;;;;;;;17.80;9.23;;;;;;;10.43;77.60;102022.03;5027756;28;20325;-72
2021/10/17 09:09:18;;;;;;;19.13;10.43;;;;;;;10.39;78.72;102026.94;5047490;28;20190;-73
2021/10/17 09:11:58;;;;;;;25.80;10.40;;;;;;;10.30;80.35;102026.59;5047691;28;20897;-73
2021/10/17 09:14:25;;;;;;;20.63;10.67;;;;;;;10.32;80.03;102018.16;5050563;28;20193;-71
2021/10/17 09:16:53;;;;;;;21.10;10.83;;;;;;;10.28;80.16;102012.88;5050463;28;20220;-72
2021/10/17 09:19:29;;;;;;;19.50;11.33;;;;;;;10.29;81.00;102014.59;5046439;28;20190;-72
2021/10/17 09:22:28;;;;;;;22.00;11.70;;;;;;;10.19;81.55;102015.91;5052779;28;20188;-73
2021/10/17 09:24:53;;;;;;;21.27;11.57;;;;;;;10.17;82.35;102012.44;5039899;28;20249;-71
2021/10/17 09:27:23;;;;;;;23.07;12.50;;;;;;;10.16;82.43;102010.69;5050435;28;20312;-72
2021/10/17 09:29:55;;;;;;;22.60;12.00;;;;;;;10.18;82.21;102015.88;5051922;28;20271;-71
2021/10/17 09:32:23;;;;;;;21.07;12.03;;;;;;;10.23;82.05;102007.53;5051575;28;20224;-71
2021/10/17 09:34:56;;;;;;;24.23;12.03;;;;;;;10.31;82.28;102016.41;5051960;28;20198;-72
2021/10/17 09:37:33;;;;;;;20.50;11.37;;;;;;;10.42;81.75;102002.31;5051736;28;20231;-71
2021/10/17 09:40:21;;;;;;;19.87;11.23;;;;;;;10.63;81.35;101999.72;5052027;28;20232;-72
2021/10/17 09:43:11;;;;;;;17.00;10.37;;;;;;;10.76;80.26;102004.47;5051692;28;20194;-72
2021/10/17 09:45:46;;;;;;;18.10;10.33;;;;;;;10.74;80.06;102008.69;5034788;28;20201;-71
2021/10/17 09:48:30;;;;;;;17.00;10.43;;;;;;;10.91;79.25;102011.03;5051663;28;20210;-71
2021/10/17 09:51:07;;;;;;;17.73;10.47;;;;;;;10.99;79.65;102014.78;5050579;28;20680;-73
2021/10/17 09:53:49;;;;;;;17.97;10.17;;;;;;;10.91;79.43;102005.91;5050278;28;20214;-73
2021/10/17 09:56:32;;;;;;;18.73;10.50;;;;;;;10.85;80.01;102021.06;5050237;28;20273;-71
2021/10/17 09:59:00;;;;;;;17.40;10.10;;;;;;;10.79;79.58;102014.84;5051602;28;20185;-71
2021/10/17 10:01:26;;;;;;;21.03;10.13;;;;;;;10.76;79.62;102005.38;5035769;28;20872;-72
2021/10/17 10:03:52;;;;;;;17.07;10.17;;;;;;;10.77;79.32;102004.53;5069382;28;20638;-72
2021/10/17 10:06:19;;;;;;;17.87;9.67;;;;;;;10.80;79.72;102012.34;5070611;28;20185;-72
2021/10/17 10:08:46;;;;;;;18.03;10.20;;;;;;;10.85;79.58;102013.38;5071185;28;20173;-71
2021/10/17 10:11:11;;;;;;;19.73;10.27;;;;;;;10.88;79.39;102010.91;5069661;28;20264;-72
2021/10/17 10:13:38;;;;;;;18.10;10.23;;;;;;;10.93;79.80;102013.66;5069355;28;20761;-71
2021/10/17 10:16:04;;;;;;;17.50;10.40;;;;;;;10.95;79.21;102012.03;5070911;28;20281;-72
2021/10/17 10:18:32;;;;;;;22.70;11.87;;;;;;;10.93;79.27;102009.41;5070929;28;20205;-72
2021/10/17 10:20:58;;;;;;;18.37;10.50;;;;;;;10.99;79.54;102013.88;5055524;28;20233;-72
2021/10/17 10:23:24;;;;;;;18.60;9.80;;;;;;;10.98;79.30;102017.28;5063244;28;20213;-72
2021/10/17 10:25:51;;;;;;;20.67;9.93;;;;;;;10.94;79.49;102013.72;5070530;28;20169;-72
2021/10/17 10:28:18;;;;;;;19.73;10.50;;;;;;;10.94;79.84;102012.84;5070950;28;20235;-72
2021/10/17 10:30:43;;;;;;;18.77;11.33;;;;;;;10.92;79.79;102014.50;5069110;28;20598;-72
2021/10/17 10:33:13;;;;;;;19.03;10.83;;;;;;;10.97;79.55;102016.38;5070659;28;20196;-71
2021/10/17 10:36:10;;;;;;;19.90;10.57;;;;;;;11.00;79.14;102019.06;5070601;28;20230;-71
2021/10/17 10:38:53;;;;;;;16.67;9.67;;;;;;;11.09;78.87;102011.72;5066525;28;20312;-71
2021/10/17 10:41:28;;;;;;;16.70;10.33;;;;;;;11.14;79.29;102009.28;5070654;28;20223;-71
2021/10/17 10:44:12;;;;;;;19.13;9.70;;;;;;;11.19;79.18;102007.75;5070652;28;20189;-71
2021/10/17 10:46:37;;;;;;;16.77;9.13;;;;;;;11.23;78.67;102017.31;5068955;28;20209;-71
2021/10/17 10:49:03;;;;;;;16.33;10.13;;;;;;;11.22;78.74;102021.59;5070365;28;20246;-71
2021/10/17 10:51:41;;;;;;;17.07;9.50;;;;;;;11.25;78.79;102016.56;5069796;28;20203;-71
2021/10/17 10:54:26;;;;;;;20.73;9.93;;;;;;;11.33;78.77;102020.25;5063536;28;20204;-71
2021/10/17 10:56:53;;;;;;;19.53;10.20;;;;;;;11.42;78.19;102019.69;5064663;28;20219;-71
2021/10/17 10:59:25;;;;;;;14.93;9.23;;;;;;;11.44;77.88;102012.94;5070204;28;20187;-71
2021/10/17 11:02:07;;;;;;;16.33;9.03;;;;;;;11.46;76.94;102017.31;5055859;28;20777;-71
2021/10/17 11:04:42;;;;;;;17.80;9.17;;;;;;;11.49;76.59;102002.03;5066503;28;20263;-71
2021/10/17 11:07:29;;;;;;;18.03;10.00;;;;;;;11.58;76.33;101994.66;5068563;28;20236;-71
2021/10/17 11:10:23;;;;;;;15.00;8.83;;;;;;;11.65;75.81;101998.31;5069604;28;20197;-72
2021/10/17 11:12:51;;;;;;;19.40;8.77;;;;;;;11.71;75.07;102001.94;5064080;28;20201;-71
2021/10/17 11:15:18;;;;;;;20.63;9.33;;;;;;;11.73;75.78;102013.16;5069793;28;20247;-71
2021/10/17 11:17:55;;;;;;;18.30;9.50;;;;;;;11.73;75.40;102009.69;5069644;28;20979;-71
2021/10/17 11:20:23;;;;;;;18.10;8.83;;;;;;;11.73;75.14;102014.84;5050100;28;20674;-71
2021/10/17 11:22:50;;;;;;;18.20;9.57;;;;;;;11.76;75.61;102022.66;5059045;28;20226;-71
2021/10/17 11:25:17;;;;;;;15.40;9.37;;;;;;;11.78;75.95;102019.31;5041434;28;20313;-71
2021/10/17 11:27:44;;;;;;;15.43;8.73;;;;;;;11.80;75.50;102015.09;5065555;28;20285;-71
2021/10/17 11:30:29;;;;;;;20.67;9.50;;;;;;;11.88;75.54;102016.22;5058878;28;20185;-70